Airfield :
LOGIN :

Register | Disclaimer

   EN    FR    IT 

 










Legend :    VFR   Marginal VFR   IFR   Intensive IFR   Very Intensive IFR
Visi :
Ceiling :
>= 8 km
>= 3000ft
5 to 8 km
1000 to 3000 ft
1500m to 5 km
500 to 1000 ft
800 to 1500m
200 to 500 ft
< 800m
< 200 ft
Symbols :   Thunderstorms  Fog  Heavy snow  Heavy precipitations  Wind > 20 kt
SIGMETs :     Misc.  Thunderstorms  Icing  Turbulence  Mountain Waves  Volcanic Ashes







- Airport Elevation : 288 ft
- IATA code : BZZ


EGVN - RAF Brize Norton

CURRENT METAR :
  • 191150Z 13009KT 4000 BR BKN008 BKN012 16/15 Q1001 BECMG 6000 NSW BKN016

EXPIRED METARs :
  • 191041Z 10005KT 2600 BR OVC004 15/14 Q1003 RERA REDZ YLO2 BECMG 6000 BKN007 GRN
  • 190950Z 11005KT 1600 RADZ OVC003 14/14 Q1004 BECMG 6000 -RA BKN007

TAF AMD TAF EGVN
Valid from the 19 at 12:00 until the 20 at 12:00 UTC


191219Z 1912/2012 14005KT 4000 BR BKN007
BECMG 1912/1915 9999 NSW FEW020
BECMG 1916/1919 BKN010
TEMPO 1917/1924 15015G25KT 4000 RA
TEMPO 2000/2008 6000 -RA
BECMG 2010/2012 23015KT SCT025
No reported NOTAMs for that airfield.



MET'MAP, your aeronautical weather chart ! - Copyright ORBIFLY December 2007 - Disclaimer

ORBIFLY MET'MAP TEAM :

Programming & Development : Alexandra Zaïnal
Concept & Development : Baudouin d'Aumeries
Co-Development & Prog : Marc-Olivier Méhu
Technical & hardware support : Manuel Goepfert

Contact : metmap@orbifly.com




SOURCES & CREDITS :

   NOAA